sensor_id;sensor_type;location;lat;lon;timestamp;pressure;altitude;pressure_sealevel;temperature;humidity
74329;BME280;62749;51.982;5.916;2022-09-03T00:00:29;101055.72;;;18.26;44.19
74329;BME280;62749;51.982;5.916;2022-09-03T00:03:11;101050.69;;;18.08;44.93
74329;BME280;62749;51.982;5.916;2022-09-03T00:05:52;101055.72;;;18.00;44.90
74329;BME280;62749;51.982;5.916;2022-09-03T00:08:45;101048.00;;;18.08;44.64
74329;BME280;62749;51.982;5.916;2022-09-03T00:11:23;101046.50;;;18.04;44.71
74329;BME280;62749;51.982;5.916;2022-09-03T00:14:03;101047.25;;;17.93;45.30
74329;BME280;62749;51.982;5.916;2022-09-03T00:16:43;101045.84;;;17.88;45.50
74329;BME280;62749;51.982;5.916;2022-09-03T00:19:23;101041.16;;;17.91;45.47
74329;BME280;62749;51.982;5.916;2022-09-03T00:22:02;101046.91;;;17.85;45.42
74329;BME280;62749;51.982;5.916;2022-09-03T00:24:41;101056.09;;;17.81;45.42
74329;BME280;62749;51.982;5.916;2022-09-03T00:27:19;101043.50;;;17.96;45.04
74329;BME280;62749;51.982;5.916;2022-09-03T00:29:57;101045.13;;;18.12;45.21
74329;BME280;62749;51.982;5.916;2022-09-03T00:32:40;101047.16;;;18.21;44.73
74329;BME280;62749;51.982;5.916;2022-09-03T00:35:18;101048.13;;;18.20;44.36
74329;BME280;62749;51.982;5.916;2022-09-03T00:37:54;101048.75;;;17.98;45.10
74329;BME280;62749;51.982;5.916;2022-09-03T00:40:41;101052.44;;;17.82;45.42
74329;BME280;62749;51.982;5.916;2022-09-03T00:43:34;101048.34;;;18.04;45.16
74329;BME280;62749;51.982;5.916;2022-09-03T00:46:25;101054.16;;;17.83;45.40
74329;BME280;62749;51.982;5.916;2022-09-03T00:49:26;101049.56;;;17.72;45.96
74329;BME280;62749;51.982;5.916;2022-09-03T00:52:18;101044.66;;;17.92;45.58
74329;BME280;62749;51.982;5.916;2022-09-03T00:55:03;101043.19;;;17.88;45.80
74329;BME280;62749;51.982;5.916;2022-09-03T00:57:53;101037.91;;;17.86;45.75
74329;BME280;62749;51.982;5.916;2022-09-03T01:00:34;101039.72;;;17.60;46.23
74329;BME280;62749;51.982;5.916;2022-09-03T01:03:08;101044.78;;;17.90;45.85
74329;BME280;62749;51.982;5.916;2022-09-03T01:05:56;101040.72;;;17.85;45.69
74329;BME280;62749;51.982;5.916;2022-09-03T01:08:52;101046.25;;;17.82;46.10
74329;BME280;62749;51.982;5.916;2022-09-03T01:11:42;101045.69;;;17.76;46.04
74329;BME280;62749;51.982;5.916;2022-09-03T01:14:34;101043.16;;;17.62;46.68
74329;BME280;62749;51.982;5.916;2022-09-03T01:17:28;101044.69;;;17.52;46.59
74329;BME280;62749;51.982;5.916;2022-09-03T01:20:35;101052.13;;;17.33;47.39
74329;BME280;62749;51.982;5.916;2022-09-03T01:23:52;101051.69;;;17.54;46.99
74329;BME280;62749;51.982;5.916;2022-09-03T01:26:57;101053.72;;;17.63;46.57
74329;BME280;62749;51.982;5.916;2022-09-03T01:29:53;101050.16;;;17.63;46.94
74329;BME280;62749;51.982;5.916;2022-09-03T01:32:39;101054.16;;;17.70;46.70
74329;BME280;62749;51.982;5.916;2022-09-03T01:35:26;101046.53;;;17.51;46.75
74329;BME280;62749;51.982;5.916;2022-09-03T01:38:15;101048.13;;;17.13;47.94
74329;BME280;62749;51.982;5.916;2022-09-03T01:41:07;101052.38;;;17.43;47.24
74329;BME280;62749;51.982;5.916;2022-09-03T01:44:07;101052.59;;;17.13;48.00
74329;BME280;62749;51.982;5.916;2022-09-03T01:46:53;101043.53;;;17.15;47.84
74329;BME280;62749;51.982;5.916;2022-09-03T01:49:37;101047.09;;;17.29;47.24
74329;BME280;62749;51.982;5.916;2022-09-03T01:52:18;101058.78;;;17.13;47.75
74329;BME280;62749;51.982;5.916;2022-09-03T01:55:09;101056.44;;;17.36;47.18
74329;BME280;62749;51.982;5.916;2022-09-03T01:57:57;101047.47;;;17.10;48.03
74329;BME280;62749;51.982;5.916;2022-09-03T02:00:35;101053.31;;;17.29;47.48
74329;BME280;62749;51.982;5.916;2022-09-03T02:03:14;101053.66;;;17.51;46.66
74329;BME280;62749;51.982;5.916;2022-09-03T02:05:45;101049.16;;;17.38;46.99
74329;BME280;62749;51.982;5.916;2022-09-03T02:08:17;101056.22;;;17.12;47.86
74329;BME280;62749;51.982;5.916;2022-09-03T02:10:51;101056.13;;;17.41;47.06
74329;BME280;62749;51.982;5.916;2022-09-03T02:13:33;101058.47;;;17.18;47.44
74329;BME280;62749;51.982;5.916;2022-09-03T02:16:10;101055.13;;;17.01;48.17
74329;BME280;62749;51.982;5.916;2022-09-03T02:18:49;101051.59;;;16.86;48.55
74329;BME280;62749;51.982;5.916;2022-09-03T02:21:24;101051.13;;;16.94;48.31
74329;BME280;62749;51.982;5.916;2022-09-03T02:24:02;101053.41;;;16.86;48.12
74329;BME280;62749;51.982;5.916;2022-09-03T02:26:34;101057.34;;;16.80;48.46
74329;BME280;62749;51.982;5.916;2022-09-03T02:29:04;101043.72;;;16.70;48.67
74329;BME280;62749;51.982;5.916;2022-09-03T02:31:35;101047.22;;;16.85;48.42
74329;BME280;62749;51.982;5.916;2022-09-03T02:34:08;101050.13;;;16.68;49.00
74329;BME280;62749;51.982;5.916;2022-09-03T02:36:43;101048.41;;;16.67;48.99
74329;BME280;62749;51.982;5.916;2022-09-03T02:39:15;101049.34;;;16.66;49.06
74329;BME280;62749;51.982;5.916;2022-09-03T02:41:50;101043.75;;;16.56;49.34
74329;BME280;62749;51.982;5.916;2022-09-03T02:44:30;101043.34;;;16.77;48.61
74329;BME280;62749;51.982;5.916;2022-09-03T02:47:06;101046.59;;;16.53;48.93
74329;BME280;62749;51.982;5.916;2022-09-03T02:49:39;101049.56;;;16.34;49.97
74329;BME280;62749;51.982;5.916;2022-09-03T02:52:09;101049.19;;;16.54;49.30
74329;BME280;62749;51.982;5.916;2022-09-03T02:54:40;101043.69;;;16.43;49.28
74329;BME280;62749;51.982;5.916;2022-09-03T02:57:14;101044.22;;;16.48;49.16
74329;BME280;62749;51.982;5.916;2022-09-03T02:59:45;101040.00;;;16.73;48.70
74329;BME280;62749;51.982;5.916;2022-09-03T03:02:15;101041.56;;;16.34;49.74
74329;BME280;62749;51.982;5.916;2022-09-03T03:04:48;101044.81;;;16.39;49.69
74329;BME280;62749;51.982;5.916;2022-09-03T03:07:18;101041.78;;;16.31;49.81
74329;BME280;62749;51.982;5.916;2022-09-03T03:09:48;101034.72;;;16.44;49.58
74329;BME280;62749;51.982;5.916;2022-09-03T03:12:18;101031.75;;;16.49;49.45
74329;BME280;62749;51.982;5.916;2022-09-03T03:14:48;101036.44;;;16.31;49.98
74329;BME280;62749;51.982;5.916;2022-09-03T03:17:18;101029.28;;;16.31;49.67
74329;BME280;62749;51.982;5.916;2022-09-03T03:19:51;101027.88;;;16.40;49.56
74329;BME280;62749;51.982;5.916;2022-09-03T03:22:21;101028.81;;;16.10;50.47
74329;BME280;62749;51.982;5.916;2022-09-03T03:24:51;101029.09;;;16.20;49.98
74329;BME280;62749;51.982;5.916;2022-09-03T03:27:22;101028.06;;;16.37;49.83
74329;BME280;62749;51.982;5.916;2022-09-03T03:29:53;101033.56;;;16.48;49.30
74329;BME280;62749;51.982;5.916;2022-09-03T03:32:23;101029.41;;;16.30;49.67
74329;BME280;62749;51.982;5.916;2022-09-03T03:34:56;101028.63;;;16.42;49.43
74329;BME280;62749;51.982;5.916;2022-09-03T03:37:26;101034.44;;;16.20;49.89
74329;BME280;62749;51.982;5.916;2022-09-03T03:39:56;101036.22;;;16.34;49.49
74329;BME280;62749;51.982;5.916;2022-09-03T03:42:26;101045.56;;;16.26;49.90
74329;BME280;62749;51.982;5.916;2022-09-03T03:44:56;101030.41;;;16.41;49.77
74329;BME280;62749;51.982;5.916;2022-09-03T03:47:27;101033.00;;;16.29;50.07
74329;BME280;62749;51.982;5.916;2022-09-03T03:50:00;101033.38;;;16.22;49.85
74329;BME280;62749;51.982;5.916;2022-09-03T03:52:30;101036.72;;;16.12;50.17
74329;BME280;62749;51.982;5.916;2022-09-03T03:55:00;101028.22;;;16.34;49.74
74329;BME280;62749;51.982;5.916;2022-09-03T03:57:30;101032.25;;;16.12;50.04
74329;BME280;62749;51.982;5.916;2022-09-03T04:00:00;101032.78;;;15.88;50.79
74329;BME280;62749;51.982;5.916;2022-09-03T04:02:30;101031.44;;;15.81;51.12
74329;BME280;62749;51.982;5.916;2022-09-03T04:05:05;101021.56;;;15.98;50.87
74329;BME280;62749;51.982;5.916;2022-09-03T04:07:35;101030.16;;;16.17;49.93
74329;BME280;62749;51.982;5.916;2022-09-03T04:10:07;101021.19;;;15.89;50.56
74329;BME280;62749;51.982;5.916;2022-09-03T04:12:37;101016.28;;;15.67;51.39
74329;BME280;62749;51.982;5.916;2022-09-03T04:15:08;101026.09;;;15.81;51.35
74329;BME280;62749;51.982;5.916;2022-09-03T04:17:38;101018.75;;;15.70;51.42
74329;BME280;62749;51.982;5.916;2022-09-03T04:20:12;101022.09;;;15.74;51.35
74329;BME280;62749;51.982;5.916;2022-09-03T04:22:42;101025.13;;;15.82;50.89
74329;BME280;62749;51.982;5.916;2022-09-03T04:25:12;101024.41;;;15.80;51.12
74329;BME280;62749;51.982;5.916;2022-09-03T04:27:42;101030.47;;;15.82;51.13
74329;BME280;62749;51.982;5.916;2022-09-03T04:30:12;101021.66;;;15.51;51.82
74329;BME280;62749;51.982;5.916;2022-09-03T04:32:42;101025.88;;;15.55;51.58
74329;BME280;62749;51.982;5.916;2022-09-03T04:35:25;101018.72;;;15.56;51.89
74329;BME280;62749;51.982;5.916;2022-09-03T04:37:57;101011.50;;;15.58;51.54
74329;BME280;62749;51.982;5.916;2022-09-03T04:40:29;101012.50;;;15.41;51.75
74329;BME280;62749;51.982;5.916;2022-09-03T04:42:59;101015.00;;;15.58;51.71
74329;BME280;62749;51.982;5.916;2022-09-03T04:45:29;101018.06;;;15.52;51.53
74329;BME280;62749;51.982;5.916;2022-09-03T04:48:00;101021.66;;;15.51;51.64
74329;BME280;62749;51.982;5.916;2022-09-03T04:50:38;101016.50;;;15.48;51.93
74329;BME280;62749;51.982;5.916;2022-09-03T04:53:08;101022.44;;;15.53;51.69
74329;BME280;62749;51.982;5.916;2022-09-03T04:55:38;101022.22;;;15.42;51.89
74329;BME280;62749;51.982;5.916;2022-09-03T04:58:08;101017.00;;;15.55;51.47
74329;BME280;62749;51.982;5.916;2022-09-03T05:00:38;101022.38;;;15.39;51.84
74329;BME280;62749;51.982;5.916;2022-09-03T05:03:08;101010.03;;;15.38;51.84
74329;BME280;62749;51.982;5.916;2022-09-03T05:05:41;101015.56;;;15.18;52.47
74329;BME280;62749;51.982;5.916;2022-09-03T05:08:11;101022.09;;;15.13;52.84
74329;BME280;62749;51.982;5.916;2022-09-03T05:10:41;101016.22;;;15.22;52.42
74329;BME280;62749;51.982;5.916;2022-09-03T05:13:11;101016.63;;;15.30;52.24
74329;BME280;62749;51.982;5.916;2022-09-03T05:15:41;101019.72;;;15.39;51.72
74329;BME280;62749;51.982;5.916;2022-09-03T05:18:11;101010.56;;;15.28;52.17
74329;BME280;62749;51.982;5.916;2022-09-03T05:20:44;101016.97;;;15.40;51.82
74329;BME280;62749;51.982;5.916;2022-09-03T05:23:14;101020.50;;;15.41;51.76
74329;BME280;62749;51.982;5.916;2022-09-03T05:25:54;101022.56;;;15.36;51.69
74329;BME280;62749;51.982;5.916;2022-09-03T05:28:26;101027.72;;;15.39;51.95
74329;BME280;62749;51.982;5.916;2022-09-03T05:30:58;101026.34;;;15.31;52.13
74329;BME280;62749;51.982;5.916;2022-09-03T05:33:29;101025.00;;;15.24;52.36
74329;BME280;62749;51.982;5.916;2022-09-03T05:36:07;101025.31;;;15.34;51.92
74329;BME280;62749;51.982;5.916;2022-09-03T05:38:39;101033.25;;;15.50;51.52
74329;BME280;62749;51.982;5.916;2022-09-03T05:41:12;101021.66;;;15.51;51.74
74329;BME280;62749;51.982;5.916;2022-09-03T05:43:47;101018.16;;;15.65;51.31
74329;BME280;62749;51.982;5.916;2022-09-03T05:46:23;101020.44;;;15.57;51.28
74329;BME280;62749;51.982;5.916;2022-09-03T05:48:56;101015.78;;;15.30;52.27
74329;BME280;62749;51.982;5.916;2022-09-03T05:51:34;101026.75;;;15.40;52.00
74329;BME280;62749;51.982;5.916;2022-09-03T05:54:05;101024.78;;;15.43;51.99
74329;BME280;62749;51.982;5.916;2022-09-03T05:56:38;101024.66;;;15.45;52.15
74329;BME280;62749;51.982;5.916;2022-09-03T05:59:09;101020.03;;;15.48;52.30
74329;BME280;62749;51.982;5.916;2022-09-03T06:01:44;101024.66;;;15.75;51.34
74329;BME280;62749;51.982;5.916;2022-09-03T06:04:15;101025.03;;;15.69;51.45
74329;BME280;62749;51.982;5.916;2022-09-03T06:06:48;101034.13;;;15.65;51.48
74329;BME280;62749;51.982;5.916;2022-09-03T06:09:20;101023.63;;;15.78;51.66
74329;BME280;62749;51.982;5.916;2022-09-03T06:11:51;101027.78;;;15.68;51.15
74329;BME280;62749;51.982;5.916;2022-09-03T06:14:22;101034.44;;;15.75;51.39
74329;BME280;62749;51.982;5.916;2022-09-03T06:16:52;101034.63;;;15.72;51.67
74329;BME280;62749;51.982;5.916;2022-09-03T06:19:22;101033.56;;;15.90;50.97
74329;BME280;62749;51.982;5.916;2022-09-03T06:21:55;101033.19;;;16.11;50.87
74329;BME280;62749;51.982;5.916;2022-09-03T06:24:25;101035.84;;;16.11;51.00
74329;BME280;62749;51.982;5.916;2022-09-03T06:26:55;101034.41;;;15.91;51.15
74329;BME280;62749;51.982;5.916;2022-09-03T06:29:25;101024.06;;;16.01;51.13
74329;BME280;62749;51.982;5.916;2022-09-03T06:31:55;101035.09;;;16.23;51.01
74329;BME280;62749;51.982;5.916;2022-09-03T06:34:26;101026.63;;;16.31;50.57
74329;BME280;62749;51.982;5.916;2022-09-03T06:36:59;101031.00;;;16.32;50.46
74329;BME280;62749;51.982;5.916;2022-09-03T06:39:29;101030.72;;;16.37;50.46
74329;BME280;62749;51.982;5.916;2022-09-03T06:41:59;101032.53;;;16.36;50.45
74329;BME280;62749;51.982;5.916;2022-09-03T06:44:29;101034.31;;;16.50;49.99
74329;BME280;62749;51.982;5.916;2022-09-03T06:46:59;101033.06;;;16.56;50.58
74329;BME280;62749;51.982;5.916;2022-09-03T06:49:29;101030.56;;;16.67;49.92
74329;BME280;62749;51.982;5.916;2022-09-03T06:52:02;101037.88;;;16.93;49.79
74329;BME280;62749;51.982;5.916;2022-09-03T06:54:32;101029.28;;;16.87;49.58
74329;BME280;62749;51.982;5.916;2022-09-03T06:57:02;101027.34;;;16.77;50.01
74329;BME280;62749;51.982;5.916;2022-09-03T06:59:32;101030.16;;;16.88;49.98
74329;BME280;62749;51.982;5.916;2022-09-03T07:02:02;101024.59;;;16.91;49.24
74329;BME280;62749;51.982;5.916;2022-09-03T07:04:33;101033.66;;;16.88;49.63
74329;BME280;62749;51.982;5.916;2022-09-03T07:07:06;101035.84;;;17.11;49.52
74329;BME280;62749;51.982;5.916;2022-09-03T07:09:40;101032.75;;;17.17;49.42
74329;BME280;62749;51.982;5.916;2022-09-03T07:12:10;101034.41;;;17.32;49.00
74329;BME280;62749;51.982;5.916;2022-09-03T07:14:42;101037.06;;;17.32;48.74
74329;BME280;62749;51.982;5.916;2022-09-03T07:17:12;101041.88;;;17.27;49.44
74329;BME280;62749;51.982;5.916;2022-09-03T07:19:43;101039.38;;;17.52;49.48
74329;BME280;62749;51.982;5.916;2022-09-03T07:22:15;101046.78;;;17.61;48.72
74329;BME280;62749;51.982;5.916;2022-09-03T07:24:45;101037.25;;;17.57;48.73
74329;BME280;62749;51.982;5.916;2022-09-03T07:27:17;101038.13;;;17.70;48.83
74329;BME280;62749;51.982;5.916;2022-09-03T07:29:47;101040.28;;;17.91;48.21
74329;BME280;62749;51.982;5.916;2022-09-03T07:32:17;101044.59;;;18.06;48.07
74329;BME280;62749;51.982;5.916;2022-09-03T07:34:47;101037.53;;;18.18;47.85
74329;BME280;62749;51.982;5.916;2022-09-03T07:37:21;101038.81;;;18.38;47.33
74329;BME280;62749;51.982;5.916;2022-09-03T07:39:50;101046.06;;;18.99;45.66
74329;BME280;62749;51.982;5.916;2022-09-03T07:42:20;101035.13;;;18.90;46.17
74329;BME280;62749;51.982;5.916;2022-09-03T07:44:50;101032.13;;;18.94;46.16
74329;BME280;62749;51.982;5.916;2022-09-03T07:47:21;101032.56;;;18.88;46.24
74329;BME280;62749;51.982;5.916;2022-09-03T07:49:51;101033.63;;;18.98;45.93
74329;BME280;62749;51.982;5.916;2022-09-03T07:52:24;101026.75;;;19.07;45.69
74329;BME280;62749;51.982;5.916;2022-09-03T07:54:54;101021.19;;;19.57;44.90
74329;BME280;62749;51.982;5.916;2022-09-03T07:57:25;101025.13;;;19.65;44.59
74329;BME280;62749;51.982;5.916;2022-09-03T07:59:54;101027.41;;;19.93;43.86
74329;BME280;62749;51.982;5.916;2022-09-03T08:02:24;101027.31;;;19.71;44.15
74329;BME280;62749;51.982;5.916;2022-09-03T08:04:54;101024.25;;;20.00;44.21
74329;BME280;62749;51.982;5.916;2022-09-03T08:07:27;101031.44;;;19.99;43.42
74329;BME280;62749;51.982;5.916;2022-09-03T08:09:58;101027.56;;;20.26;43.16
74329;BME280;62749;51.982;5.916;2022-09-03T08:12:28;101033.75;;;20.38;42.59
74329;BME280;62749;51.982;5.916;2022-09-03T08:14:59;101029.50;;;20.24;42.81
74329;BME280;62749;51.982;5.916;2022-09-03T08:17:29;101029.47;;;20.58;42.69
74329;BME280;62749;51.982;5.916;2022-09-03T08:20:09;101030.91;;;20.74;41.93
74329;BME280;62749;51.982;5.916;2022-09-03T08:22:41;101031.22;;;21.03;41.41
74329;BME280;62749;51.982;5.916;2022-09-03T08:25:11;101032.94;;;21.04;41.12
74329;BME280;62749;51.982;5.916;2022-09-03T08:27:41;101035.88;;;21.34;40.66
74329;BME280;62749;51.982;5.916;2022-09-03T08:30:11;101037.13;;;21.62;40.54
74329;BME280;62749;51.982;5.916;2022-09-03T08:32:41;101034.66;;;22.01;39.28
74329;BME280;62749;51.982;5.916;2022-09-03T08:35:11;101038.78;;;21.74;39.21
74329;BME280;62749;51.982;5.916;2022-09-03T08:37:43;101033.63;;;21.92;38.92
74329;BME280;62749;51.982;5.916;2022-09-03T08:40:15;101036.44;;;22.43;38.14
74329;BME280;62749;51.982;5.916;2022-09-03T08:42:57;101023.16;;;22.51;38.25
74329;BME280;62749;51.982;5.916;2022-09-03T08:45:37;101034.50;;;22.55;37.44
74329;BME280;62749;51.982;5.916;2022-09-03T08:48:13;101044.22;;;22.87;36.71
74329;BME280;62749;51.982;5.916;2022-09-03T08:50:51;101034.91;;;23.40;35.79
74329;BME280;62749;51.982;5.916;2022-09-03T08:53:40;101031.25;;;24.09;35.51
74329;BME280;62749;51.982;5.916;2022-09-03T08:56:23;101035.38;;;24.13;34.65
74329;BME280;62749;51.982;5.916;2022-09-03T08:58:56;101034.03;;;24.27;35.24
74329;BME280;62749;51.982;5.916;2022-09-03T09:01:40;101029.59;;;25.27;32.54
74329;BME280;62749;51.982;5.916;2022-09-03T09:04:31;101024.50;;;24.60;33.66
74329;BME280;62749;51.982;5.916;2022-09-03T09:07:17;101038.00;;;24.60;33.62
74329;BME280;62749;51.982;5.916;2022-09-03T09:10:03;101031.50;;;24.81;33.32
74329;BME280;62749;51.982;5.916;2022-09-03T09:12:50;101033.84;;;25.30;32.70
74329;BME280;62749;51.982;5.916;2022-09-03T09:15:42;101037.25;;;25.32;32.45
74329;BME280;62749;51.982;5.916;2022-09-03T09:18:35;101026.31;;;26.39;31.08
74329;BME280;62749;51.982;5.916;2022-09-03T09:21:26;101030.94;;;27.06;30.28
74329;BME280;62749;51.982;5.916;2022-09-03T09:24:03;101025.53;;;25.94;31.33
74329;BME280;62749;51.982;5.916;2022-09-03T09:26:41;101031.50;;;25.71;31.80
74329;BME280;62749;51.982;5.916;2022-09-03T09:29:13;101025.56;;;25.68;31.66
74329;BME280;62749;51.982;5.916;2022-09-03T09:31:44;101030.91;;;25.05;33.38
74329;BME280;62749;51.982;5.916;2022-09-03T09:34:15;101031.91;;;25.85;31.86
74329;BME280;62749;51.982;5.916;2022-09-03T09:36:48;101034.94;;;25.82;31.92
74329;BME280;62749;51.982;5.916;2022-09-03T09:39:25;101035.47;;;25.59;31.81
74329;BME280;62749;51.982;5.916;2022-09-03T09:42:04;101035.91;;;26.68;30.83
74329;BME280;62749;51.982;5.916;2022-09-03T09:44:41;101029.16;;;28.21;29.13
74329;BME280;62749;51.982;5.916;2022-09-03T09:47:20;101032.69;;;28.30;28.48
74329;BME280;62749;51.982;5.916;2022-09-03T09:50:03;101038.56;;;28.42;27.88
74329;BME280;62749;51.982;5.916;2022-09-03T09:52:59;101041.63;;;27.58;29.13
74329;BME280;62749;51.982;5.916;2022-09-03T09:55:49;101042.34;;;26.32;31.04
74329;BME280;62749;51.982;5.916;2022-09-03T09:58:25;101039.34;;;26.87;30.19
74329;BME280;62749;51.982;5.916;2022-09-03T10:01:04;101037.03;;;27.25;29.74
74329;BME280;62749;51.982;5.916;2022-09-03T10:03:51;101025.22;;;26.24;31.71
74329;BME280;62749;51.982;5.916;2022-09-03T10:06:24;101027.81;;;26.33;30.67
74329;BME280;62749;51.982;5.916;2022-09-03T10:09:10;101031.25;;;26.95;30.11
74329;BME280;62749;51.982;5.916;2022-09-03T10:11:46;101030.28;;;26.61;30.87
74329;BME280;62749;51.982;5.916;2022-09-03T10:14:26;101025.84;;;27.11;29.49
74329;BME280;62749;51.982;5.916;2022-09-03T10:17:08;101024.84;;;27.54;28.99
74329;BME280;62749;51.982;5.916;2022-09-03T10:20:00;101030.09;;;27.72;29.29
74329;BME280;62749;51.982;5.916;2022-09-03T10:22:55;101026.31;;;27.98;28.58
74329;BME280;62749;51.982;5.916;2022-09-03T10:25:38;101022.06;;;26.79;30.43
74329;BME280;62749;51.982;5.916;2022-09-03T10:28:23;101026.69;;;27.04;29.44
74329;BME280;62749;51.982;5.916;2022-09-03T10:31:38;101017.81;;;26.77;30.22
74329;BME280;62749;51.982;5.916;2022-09-03T10:34:27;101025.47;;;26.82;30.15
74329;BME280;62749;51.982;5.916;2022-09-03T10:37:17;101020.38;;;26.87;29.76
74329;BME280;62749;51.982;5.916;2022-09-03T10:40:04;101025.84;;;27.20;30.16
74329;BME280;62749;51.982;5.916;2022-09-03T10:42:59;101015.19;;;28.32;28.52
74329;BME280;62749;51.982;5.916;2022-09-03T10:46:01;101009.75;;;27.60;29.57
74329;BME280;62749;51.982;5.916;2022-09-03T10:49:01;101013.59;;;27.90;28.69
74329;BME280;62749;51.982;5.916;2022-09-03T10:51:51;101015.03;;;27.45;29.27
74329;BME280;62749;51.982;5.916;2022-09-03T10:54:54;101011.34;;;28.90;26.96
74329;BME280;62749;51.982;5.916;2022-09-03T10:57:50;101011.34;;;28.19;27.94
74329;BME280;62749;51.982;5.916;2022-09-03T11:00:46;101008.50;;;27.95;28.18
74329;BME280;62749;51.982;5.916;2022-09-03T11:03:42;101007.91;;;28.25;28.07
74329;BME280;62749;51.982;5.916;2022-09-03T11:06:22;101005.84;;;29.21;27.08
74329;BME280;62749;51.982;5.916;2022-09-03T11:09:12;101013.56;;;29.33;26.75
74329;BME280;62749;51.982;5.916;2022-09-03T11:11:53;101003.56;;;29.10;26.52
74329;BME280;62749;51.982;5.916;2022-09-03T11:14:39;101010.00;;;29.09;26.57
74329;BME280;62749;51.982;5.916;2022-09-03T11:17:27;101009.69;;;29.50;26.32
74329;BME280;62749;51.982;5.916;2022-09-03T11:20:11;100998.53;;;28.99;27.01
74329;BME280;62749;51.982;5.916;2022-09-03T11:22:51;101004.94;;;28.51;27.32
74329;BME280;62749;51.982;5.916;2022-09-03T11:25:36;100998.59;;;28.59;27.52
74329;BME280;62749;51.982;5.916;2022-09-03T11:28:23;100999.38;;;29.22;25.96
74329;BME280;62749;51.982;5.916;2022-09-03T11:31:24;101003.41;;;28.48;27.10
74329;BME280;62749;51.982;5.916;2022-09-03T11:34:07;100995.59;;;29.08;27.52
74329;BME280;62749;51.982;5.916;2022-09-03T11:36:50;100981.56;;;29.73;26.39
74329;BME280;62749;51.982;5.916;2022-09-03T11:39:33;100989.34;;;30.51;25.29
74329;BME280;62749;51.982;5.916;2022-09-03T11:42:11;100984.19;;;29.51;26.05
74329;BME280;62749;51.982;5.916;2022-09-03T11:45:12;100983.34;;;28.81;27.01
74329;BME280;62749;51.982;5.916;2022-09-03T11:47:52;100983.53;;;29.49;26.53
74329;BME280;62749;51.982;5.916;2022-09-03T11:50:25;100988.97;;;30.54;25.30
74329;BME280;62749;51.982;5.916;2022-09-03T11:53:10;100986.56;;;29.69;25.92
74329;BME280;62749;51.982;5.916;2022-09-03T11:55:55;100986.41;;;28.86;27.75
74329;BME280;62749;51.982;5.916;2022-09-03T11:58:32;100978.97;;;30.10;25.39
74329;BME280;62749;51.982;5.916;2022-09-03T12:01:16;100979.72;;;30.04;25.75
74329;BME280;62749;51.982;5.916;2022-09-03T12:03:52;100981.06;;;30.81;24.75
74329;BME280;62749;51.982;5.916;2022-09-03T12:06:58;100975.88;;;29.98;25.86
74329;BME280;62749;51.982;5.916;2022-09-03T12:10:10;100975.38;;;30.98;25.23
74329;BME280;62749;51.982;5.916;2022-09-03T12:13:00;100973.66;;;29.48;27.02
74329;BME280;62749;51.982;5.916;2022-09-03T12:16:05;100980.50;;;29.97;25.85
74329;BME280;62749;51.982;5.916;2022-09-03T12:18:50;100975.25;;;29.19;26.77
74329;BME280;62749;51.982;5.916;2022-09-03T12:21:24;100982.19;;;30.50;25.42
74329;BME280;62749;51.982;5.916;2022-09-03T12:23:54;100979.13;;;29.63;26.29
74329;BME280;62749;51.982;5.916;2022-09-03T12:26:27;100971.53;;;29.89;26.30
74329;BME280;62749;51.982;5.916;2022-09-03T12:28:58;100972.50;;;30.11;26.25
74329;BME280;62749;51.982;5.916;2022-09-03T12:31:48;100975.47;;;29.71;26.19
74329;BME280;62749;51.982;5.916;2022-09-03T12:34:30;100979.69;;;30.34;25.06
74329;BME280;62749;51.982;5.916;2022-09-03T12:37:01;100968.41;;;29.77;26.10
74329;BME280;62749;51.982;5.916;2022-09-03T12:39:31;100976.34;;;30.53;25.98
74329;BME280;62749;51.982;5.916;2022-09-03T12:42:05;100974.44;;;30.17;25.63
74329;BME280;62749;51.982;5.916;2022-09-03T12:44:40;100972.22;;;30.06;26.32
74329;BME280;62749;51.982;5.916;2022-09-03T12:47:22;100977.13;;;29.42;26.40
74329;BME280;62749;51.982;5.916;2022-09-03T12:49:57;100979.72;;;30.70;25.70
74329;BME280;62749;51.982;5.916;2022-09-03T12:52:45;100971.91;;;29.56;26.72
74329;BME280;62749;51.982;5.916;2022-09-03T12:55:32;100966.47;;;29.70;25.98
74329;BME280;62749;51.982;5.916;2022-09-03T12:58:11;100969.78;;;30.11;25.98
74329;BME280;62749;51.982;5.916;2022-09-03T13:01:04;100973.41;;;31.35;25.29
74329;BME280;62749;51.982;5.916;2022-09-03T13:03:45;100965.63;;;30.52;25.29
74329;BME280;62749;51.982;5.916;2022-09-03T13:06:23;100957.31;;;30.97;25.36
74329;BME280;62749;51.982;5.916;2022-09-03T13:09:07;100965.06;;;31.15;25.33
74329;BME280;62749;51.982;5.916;2022-09-03T13:11:38;100973.41;;;31.35;25.70
74329;BME280;62749;51.982;5.916;2022-09-03T13:14:17;100969.94;;;30.24;26.87
74329;BME280;62749;51.982;5.916;2022-09-03T13:17:21;100972.97;;;30.66;26.25
74329;BME280;62749;51.982;5.916;2022-09-03T13:20:23;100973.16;;;30.86;25.60
74329;BME280;62749;51.982;5.916;2022-09-03T13:23:30;100971.94;;;30.15;27.10
74329;BME280;62749;51.982;5.916;2022-09-03T13:26:25;100963.81;;;29.92;27.23
74329;BME280;62749;51.982;5.916;2022-09-03T13:29:25;100968.22;;;30.75;26.19
74329;BME280;62749;51.982;5.916;2022-09-03T13:32:25;100964.72;;;30.59;26.68
74329;BME280;62749;51.982;5.916;2022-09-03T13:35:15;100965.34;;;30.10;27.66
74329;BME280;62749;51.982;5.916;2022-09-03T13:37:57;100969.00;;;30.69;26.81
74329;BME280;62749;51.982;5.916;2022-09-03T13:40:44;100968.31;;;29.70;27.92
74329;BME280;62749;51.982;5.916;2022-09-03T13:43:27;100964.44;;;29.11;28.83
74329;BME280;62749;51.982;5.916;2022-09-03T13:46:15;100957.94;;;30.04;27.56
74329;BME280;62749;51.982;5.916;2022-09-03T13:48:58;100961.88;;;29.33;28.75